createdAt,value
2022-10-02T00:02:07.877Z,2.40
2022-10-02T00:04:45.404Z,2.93
2022-10-02T00:07:14.273Z,2.93
2022-10-02T00:09:49.320Z,2.50
2022-10-02T00:12:21.169Z,2.50
2022-10-02T00:14:55.552Z,2.23
2022-10-02T00:17:29.415Z,3.60
2022-10-02T00:19:58.146Z,2.77
2022-10-02T00:22:43.580Z,2.30
2022-10-02T00:25:23.347Z,2.23
2022-10-02T00:28:10.452Z,2.03
2022-10-02T00:30:55.755Z,2.20
2022-10-02T00:33:33.176Z,2.33
2022-10-02T00:36:17.158Z,2.00
2022-10-02T00:38:55.235Z,2.43
2022-10-02T00:42:17.682Z,2.13
2022-10-02T00:45:13.181Z,1.80
2022-10-02T00:47:53.280Z,1.93
2022-10-02T00:50:35.393Z,2.47
2022-10-02T00:53:28.033Z,2.33
2022-10-02T00:56:05.783Z,2.00
2022-10-02T00:59:08.961Z,2.00
2022-10-02T01:01:42.580Z,2.37
2022-10-02T01:04:16.756Z,1.70
2022-10-02T01:06:44.961Z,2.90
2022-10-02T01:09:13.437Z,2.10
2022-10-02T01:11:41.921Z,1.63
2022-10-02T01:14:10.525Z,2.17
2022-10-02T01:16:41.931Z,2.00
2022-10-02T01:19:25.775Z,2.27
2022-10-02T01:22:00.769Z,2.40
2022-10-02T01:24:35.389Z,2.00
2022-10-02T01:27:05.059Z,2.17
2022-10-02T01:29:33.263Z,2.10
2022-10-02T01:32:02.496Z,2.20
2022-10-02T01:34:31.287Z,2.33
2022-10-02T01:36:59.744Z,2.50
2022-10-02T01:39:28.361Z,2.00
2022-10-02T01:41:56.705Z,2.00
2022-10-02T01:44:35.305Z,1.80
2022-10-02T01:47:09.455Z,2.10
2022-10-02T01:50:01.923Z,2.07
2022-10-02T01:52:45.866Z,2.03
2022-10-02T01:55:28.422Z,1.80
2022-10-02T01:58:14.418Z,2.07
2022-10-02T02:01:00.676Z,1.77
2022-10-02T02:03:42.659Z,2.10
2022-10-02T02:06:22.996Z,1.80
2022-10-02T02:09:03.078Z,1.60
2022-10-02T02:11:31.715Z,1.97
2022-10-02T02:14:05.189Z,1.90
2022-10-02T02:16:42.008Z,1.83
2022-10-02T02:19:17.559Z,1.70
2022-10-02T02:21:51.406Z,1.33
2022-10-02T02:24:26.803Z,2.00
2022-10-02T02:26:57.839Z,1.83
2022-10-02T02:29:29.507Z,1.77
2022-10-02T02:32:01.735Z,1.30
2022-10-02T02:34:35.196Z,1.70
2022-10-02T02:37:13.764Z,2.00
2022-10-02T02:39:48.553Z,1.70
2022-10-02T02:42:22.770Z,1.40
2022-10-02T02:44:58.826Z,2.20
2022-10-02T02:47:35.726Z,1.70
2022-10-02T02:50:11.668Z,1.70
2022-10-02T02:52:45.299Z,1.73
2022-10-02T02:55:20.243Z,1.50
2022-10-02T02:57:54.527Z,1.40
2022-10-02T03:00:24.286Z,1.47
2022-10-02T03:02:54.707Z,1.70
2022-10-02T03:05:25.266Z,1.70
2022-10-02T03:07:58.705Z,1.70
2022-10-02T03:10:44.727Z,1.57
2022-10-02T03:13:30.161Z,1.90
2022-10-02T03:16:18.027Z,2.10
2022-10-02T03:19:04.138Z,1.70
2022-10-02T03:21:42.145Z,1.57
2022-10-02T03:24:18.714Z,1.50
2022-10-02T03:26:54.628Z,1.37
2022-10-02T03:29:30.642Z,4.43
2022-10-02T03:32:00.747Z,2.03
2022-10-02T03:34:32.895Z,2.83
2022-10-02T03:37:02.104Z,3.10
2022-10-02T03:39:30.597Z,3.63
2022-10-02T03:41:59.353Z,2.70
2022-10-02T03:44:27.671Z,3.70
2022-10-02T03:46:55.946Z,4.27
2022-10-02T03:49:24.255Z,1.73
2022-10-02T03:51:53.892Z,2.07
2022-10-02T03:54:23.535Z,1.60
2022-10-02T03:56:57.190Z,1.87
2022-10-02T03:59:40.982Z,2.10
2022-10-02T04:02:17.095Z,2.40
2022-10-02T04:04:50.529Z,2.10
2022-10-02T04:07:27.134Z,2.23
2022-10-02T04:10:22.594Z,2.30
2022-10-02T04:12:55.546Z,1.97
2022-10-02T04:15:29.188Z,2.53
2022-10-02T04:18:04.534Z,2.57
2022-10-02T04:20:38.006Z,2.20
2022-10-02T04:23:18.354Z,2.83
2022-10-02T04:25:51.204Z,2.80
2022-10-02T04:28:26.770Z,2.60
2022-10-02T04:30:55.492Z,2.63
2022-10-02T04:33:26.011Z,2.63
2022-10-02T04:36:07.398Z,2.77
2022-10-02T04:39:08.654Z,2.37
2022-10-02T04:42:02.037Z,2.70
2022-10-02T04:44:53.589Z,2.70
2022-10-02T04:47:52.199Z,2.70
2022-10-02T04:50:37.984Z,3.63
2022-10-02T04:53:45.297Z,2.33
2022-10-02T04:56:36.116Z,2.97
2022-10-02T04:59:25.807Z,2.63
2022-10-02T05:02:14.646Z,2.77
2022-10-02T05:05:20.434Z,2.77
2022-10-02T05:08:16.597Z,2.60
2022-10-02T05:11:13.913Z,2.20
2022-10-02T05:14:09.674Z,2.97
2022-10-02T05:16:57.729Z,2.60
2022-10-02T05:19:58.773Z,2.43
2022-10-02T05:22:57.355Z,2.20
2022-10-02T05:25:48.842Z,2.37
2022-10-02T05:28:48.073Z,2.93
2022-10-02T05:31:33.349Z,2.43
2022-10-02T05:34:18.090Z,2.93
2022-10-02T05:37:13.140Z,2.60
2022-10-02T05:39:49.061Z,2.67
2022-10-02T05:42:27.671Z,2.27
2022-10-02T05:45:04.292Z,4.63
2022-10-02T05:47:37.681Z,2.57
2022-10-02T05:50:17.977Z,2.63
2022-10-02T05:52:56.121Z,2.40
2022-10-02T05:55:31.103Z,2.00
2022-10-02T05:58:07.090Z,2.17
2022-10-02T06:00:42.625Z,2.03
2022-10-02T06:03:19.208Z,2.10
2022-10-02T06:05:56.327Z,2.93
2022-10-02T06:08:52.980Z,2.53
2022-10-02T06:11:28.484Z,2.90
2022-10-02T06:14:02.056Z,2.87
2022-10-02T06:16:37.762Z,2.43
2022-10-02T06:19:12.662Z,2.13
2022-10-02T06:21:49.350Z,2.40
2022-10-02T06:24:23.942Z,2.73
2022-10-02T06:26:58.574Z,2.60
2022-10-02T06:30:42.091Z,4.10
2022-10-02T06:33:19.468Z,4.30
2022-10-02T06:36:13.670Z,5.07
2022-10-02T06:39:04.579Z,3.03
2022-10-02T06:41:44.026Z,4.93
2022-10-02T06:44:21.235Z,6.63
2022-10-02T06:47:05.134Z,3.03
2022-10-02T06:49:51.347Z,3.53
2022-10-02T06:52:35.744Z,3.23
2022-10-02T06:55:32.294Z,3.07
2022-10-02T06:58:25.476Z,3.73
2022-10-02T07:01:05.035Z,2.83
2022-10-02T07:04:09.230Z,2.30
2022-10-02T07:06:53.535Z,4.43
2022-10-02T07:09:43.231Z,3.97
2022-10-02T07:12:38.186Z,3.13
2022-10-02T07:15:32.077Z,2.10
2022-10-02T07:18:15.600Z,2.30
2022-10-02T07:20:56.008Z,3.00
2022-10-02T07:23:53.010Z,2.77
2022-10-02T07:26:38.989Z,1.83
2022-10-02T07:29:26.799Z,1.97
2022-10-02T07:32:13.758Z,1.97
2022-10-02T07:34:51.691Z,2.27
2022-10-02T07:37:30.000Z,2.50
2022-10-02T07:40:22.189Z,2.10
2022-10-02T07:43:09.455Z,2.27
2022-10-02T07:45:42.030Z,2.17
2022-10-02T07:48:38.787Z,1.80
2022-10-02T07:51:47.315Z,2.10
2022-10-02T07:54:55.368Z,1.80
2022-10-02T07:57:40.439Z,1.57
2022-10-02T08:00:15.346Z,1.60
2022-10-02T08:02:57.182Z,1.23
2022-10-02T08:05:33.929Z,1.50
2022-10-02T08:08:11.059Z,1.20
2022-10-02T08:10:42.889Z,1.37
2022-10-02T08:13:20.584Z,1.50
2022-10-02T08:15:55.319Z,1.37
2022-10-02T08:18:35.095Z,1.47
2022-10-02T08:21:08.231Z,1.30
2022-10-02T08:23:44.031Z,1.10
2022-10-02T08:26:20.422Z,1.33
2022-10-02T08:29:01.192Z,1.40
2022-10-02T08:31:29.643Z,1.50
2022-10-02T08:34:00.607Z,1.70
2022-10-02T08:37:11.493Z,1.10
2022-10-02T08:40:28.407Z,1.30
2022-10-02T08:43:32.150Z,1.40
2022-10-02T08:47:05.608Z,2.00
2022-10-02T08:50:03.976Z,2.40
2022-10-02T08:53:22.979Z,1.80
2022-10-02T08:56:19.148Z,1.80
2022-10-02T08:59:48.492Z,2.30
2022-10-02T09:03:10.458Z,4.60
2022-10-02T09:06:47.964Z,1.90
2022-10-02T09:09:53.442Z,1.63
2022-10-02T09:13:11.073Z,1.70
2022-10-02T09:15:47.322Z,1.67
2022-10-02T09:18:36.113Z,1.77
2022-10-02T09:21:18.916Z,1.63
2022-10-02T09:24:38.682Z,1.60
2022-10-02T09:27:52.091Z,1.50
2022-10-02T09:31:03.684Z,2.00
2022-10-02T09:34:35.100Z,1.47
2022-10-02T09:37:46.917Z,1.80
2022-10-02T09:41:01.563Z,2.20
2022-10-02T09:44:16.771Z,1.73
2022-10-02T09:47:22.077Z,2.77
2022-10-02T09:50:35.707Z,5.20
2022-10-02T09:53:35.644Z,4.00
2022-10-02T09:56:53.415Z,1.73
2022-10-02T09:59:52.279Z,1.30
2022-10-02T10:03:16.543Z,1.23
2022-10-02T10:06:36.345Z,2.13
2022-10-02T10:09:42.344Z,3.37
2022-10-02T10:13:03.926Z,8.17
2022-10-02T10:16:42.238Z,5.80
2022-10-02T10:19:47.825Z,3.47
2022-10-02T10:23:03.556Z,1.70
2022-10-02T10:25:56.436Z,2.03
2022-10-02T10:29:15.071Z,1.83
2022-10-02T10:32:45.822Z,2.77
2022-10-02T10:35:47.981Z,1.80
2022-10-02T10:38:52.279Z,2.60
2022-10-02T10:41:57.472Z,1.30
2022-10-02T10:44:54.928Z,2.80
2022-10-02T10:47:59.511Z,3.43
2022-10-02T10:50:50.248Z,4.93
2022-10-02T10:53:41.643Z,4.63
2022-10-02T10:56:38.230Z,4.63
2022-10-02T10:59:54.315Z,3.50
2022-10-02T11:03:05.445Z,4.17
2022-10-02T11:06:33.393Z,5.83
2022-10-02T11:09:43.054Z,3.07
2022-10-02T11:13:03.113Z,2.40
2022-10-02T11:16:22.189Z,2.87
2022-10-02T11:19:37.081Z,3.37
2022-10-02T11:22:54.108Z,1.10
2022-10-02T11:26:02.918Z,5.80
2022-10-02T11:29:06.497Z,2.10
2022-10-02T11:32:06.030Z,1.70
2022-10-02T11:35:06.810Z,1.80
2022-10-02T11:38:09.423Z,2.40
2022-10-02T11:41:16.389Z,3.63
2022-10-02T11:44:05.602Z,5.40
2022-10-02T11:46:57.853Z,2.10
2022-10-02T11:50:17.273Z,3.67
2022-10-02T11:53:14.422Z,2.83
2022-10-02T11:55:59.973Z,16.03
2022-10-02T11:58:45.133Z,4.87
2022-10-02T12:01:24.460Z,1.30
2022-10-02T12:04:05.913Z,1.60
2022-10-02T12:07:24.396Z,2.57
2022-10-02T12:10:07.962Z,2.93
2022-10-02T12:12:51.617Z,2.10
2022-10-02T12:15:33.227Z,1.53
2022-10-02T12:18:22.959Z,3.93
2022-10-02T12:21:25.607Z,2.10
2022-10-02T12:24:17.758Z,3.17
2022-10-02T12:26:59.829Z,0.90
2022-10-02T12:29:55.729Z,1.70
2022-10-02T12:32:41.419Z,2.73
2022-10-02T12:35:39.641Z,1.57
2022-10-02T12:38:25.451Z,1.57
2022-10-02T12:41:08.702Z,1.63
2022-10-02T12:44:11.950Z,1.10
2022-10-02T12:47:22.831Z,1.53
2022-10-02T12:50:05.781Z,1.20
2022-10-02T12:53:21.474Z,1.10
2022-10-02T12:56:29.138Z,1.00
2022-10-02T12:59:07.203Z,1.10
2022-10-02T13:02:49.455Z,1.10
2022-10-02T13:05:58.531Z,0.90
2022-10-02T13:08:41.536Z,0.90
2022-10-02T13:11:21.898Z,1.17
2022-10-02T13:14:38.838Z,1.30
2022-10-02T13:17:22.074Z,1.70
2022-10-02T13:23:11.124Z,1.90
2022-10-02T13:25:58.726Z,1.70
2022-10-02T13:28:58.225Z,2.30
2022-10-02T13:31:44.032Z,1.67
2022-10-02T13:34:38.341Z,1.70
2022-10-02T13:37:20.130Z,1.30
2022-10-02T13:40:21.720Z,1.50
2022-10-02T13:43:25.137Z,1.50
2022-10-02T13:46:03.521Z,1.80
2022-10-02T13:48:48.534Z,1.60
2022-10-02T13:51:23.632Z,1.43
2022-10-02T13:54:37.398Z,1.00
2022-10-02T13:57:20.036Z,1.03
2022-10-02T14:00:06.157Z,1.20
2022-10-02T14:02:51.534Z,0.87
2022-10-02T14:05:35.896Z,1.10
2022-10-02T14:08:48.305Z,1.10
2022-10-02T14:11:29.876Z,1.43
2022-10-02T14:14:14.647Z,1.50
2022-10-02T14:17:03.225Z,1.40
2022-10-02T14:20:00.191Z,1.40
2022-10-02T14:22:49.403Z,1.13
2022-10-02T14:25:42.488Z,1.30
2022-10-02T14:28:32.590Z,1.10
2022-10-02T14:31:27.565Z,1.10
2022-10-02T14:34:30.273Z,0.90
2022-10-02T14:37:30.930Z,1.07
2022-10-02T14:40:02.585Z,0.90
2022-10-02T14:42:54.011Z,5.53
2022-10-02T14:46:19.771Z,1.07
2022-10-02T14:49:21.057Z,0.80
2022-10-02T14:52:31.363Z,1.20
2022-10-02T14:55:28.400Z,1.73
2022-10-02T14:58:28.948Z,2.00
2022-10-02T15:01:22.358Z,0.90
2022-10-02T15:04:30.947Z,1.40
2022-10-02T15:07:08.277Z,1.33
2022-10-02T15:10:01.421Z,1.40
2022-10-02T15:12:46.663Z,1.00
2022-10-02T15:15:19.605Z,1.30
2022-10-02T15:18:00.443Z,1.70
2022-10-02T15:20:41.445Z,2.10
2022-10-02T15:23:14.550Z,1.70
2022-10-02T15:26:05.532Z,6.37
2022-10-02T15:28:49.322Z,3.43
2022-10-02T15:31:27.982Z,3.53
2022-10-02T15:34:09.795Z,5.27
2022-10-02T15:36:56.956Z,3.53
2022-10-02T15:40:16.878Z,4.00
2022-10-02T15:42:57.502Z,3.33
2022-10-02T15:46:02.043Z,2.50
2022-10-02T15:48:58.282Z,2.63
2022-10-02T15:52:01.918Z,1.17
2022-10-02T15:54:57.955Z,1.30
2022-10-02T15:57:52.235Z,1.70
2022-10-02T16:00:22.370Z,1.30
2022-10-02T16:03:11.291Z,1.90
2022-10-02T16:05:56.678Z,2.60
2022-10-02T16:09:21.218Z,3.60
2022-10-02T16:12:17.781Z,3.23
2022-10-02T16:15:01.315Z,2.23
2022-10-02T16:17:50.322Z,1.60
2022-10-02T16:20:49.117Z,2.30
2022-10-02T16:23:54.820Z,10.53
2022-10-02T16:27:04.201Z,1.90
2022-10-02T16:29:42.695Z,2.50
2022-10-02T16:32:21.951Z,6.40
2022-10-02T16:35:18.343Z,3.40
2022-10-02T16:37:48.205Z,3.53
2022-10-02T16:40:29.394Z,5.40
2022-10-02T16:43:32.451Z,3.33
2022-10-02T16:46:12.224Z,3.90
2022-10-02T16:48:50.912Z,4.10
2022-10-02T16:51:45.086Z,4.50
2022-10-02T16:54:23.689Z,3.57
2022-10-02T16:56:58.334Z,3.80
2022-10-02T16:59:29.432Z,3.50
2022-10-02T17:02:17.426Z,4.63
2022-10-02T17:04:59.576Z,3.97
2022-10-02T17:07:38.715Z,3.67
2022-10-02T17:10:21.085Z,3.13
2022-10-02T17:12:58.828Z,2.30
2022-10-02T17:15:36.118Z,2.67
2022-10-02T17:18:23.481Z,2.00
2022-10-02T17:20:56.528Z,11.50
2022-10-02T17:23:29.865Z,3.30
2022-10-02T17:26:07.276Z,3.17
2022-10-02T17:28:44.668Z,5.87
2022-10-02T17:31:36.695Z,3.00
2022-10-02T17:34:22.144Z,7.60
2022-10-02T17:37:07.852Z,2.93
2022-10-02T17:39:53.939Z,2.30
2022-10-02T17:42:41.164Z,7.70
2022-10-02T17:45:27.290Z,2.60
2022-10-02T17:48:19.255Z,2.50
2022-10-02T17:51:47.590Z,19.10
2022-10-02T17:54:54.415Z,7.70
2022-10-02T17:57:38.259Z,15.00
2022-10-02T18:00:15.485Z,4.80
2022-10-02T18:03:39.001Z,5.30
2022-10-02T18:06:29.214Z,4.90
2022-10-02T18:09:31.581Z,7.27
2022-10-02T18:12:53.539Z,6.40
2022-10-02T18:15:54.764Z,6.63
2022-10-02T18:18:34.725Z,5.83
2022-10-02T18:21:37.902Z,9.27
2022-10-02T18:24:33.264Z,2.97
2022-10-02T18:27:22.908Z,2.37
2022-10-02T18:30:08.853Z,9.03
2022-10-02T18:33:04.318Z,5.10
2022-10-02T18:35:47.234Z,7.17
2022-10-02T18:38:30.632Z,3.87
2022-10-02T18:41:19.765Z,2.17
2022-10-02T18:44:10.525Z,2.10
2022-10-02T18:46:51.859Z,4.10
2022-10-02T18:49:49.539Z,3.00
2022-10-02T18:52:53.651Z,2.37
2022-10-02T18:56:02.938Z,2.93
2022-10-02T18:58:44.790Z,2.50
2022-10-02T19:01:38.724Z,2.87
2022-10-02T19:04:52.198Z,3.20
2022-10-02T19:07:23.866Z,2.70
2022-10-02T19:10:17.612Z,3.20
2022-10-02T19:12:47.378Z,3.20
2022-10-02T19:15:27.107Z,2.83
2022-10-02T19:18:01.961Z,3.30
2022-10-02T19:20:53.171Z,3.90
2022-10-02T19:23:30.661Z,3.80
2022-10-02T19:26:05.981Z,4.07
2022-10-02T19:28:46.493Z,3.80
2022-10-02T19:31:23.940Z,3.90
2022-10-02T19:33:57.335Z,4.43
2022-10-02T19:36:28.311Z,4.50
2022-10-02T19:39:01.275Z,4.77
2022-10-02T19:41:35.897Z,5.57
2022-10-02T19:44:19.075Z,4.80
2022-10-02T19:46:52.861Z,4.97
2022-10-02T19:49:28.478Z,5.43
2022-10-02T19:51:57.072Z,5.07
2022-10-02T19:54:30.687Z,5.00
2022-10-02T19:57:04.707Z,5.40
2022-10-02T19:59:41.849Z,6.00
2022-10-02T20:02:23.143Z,5.47
2022-10-02T20:04:53.899Z,5.97
2022-10-02T20:07:26.651Z,5.90
2022-10-02T20:09:59.653Z,5.50
2022-10-02T20:12:32.953Z,5.77
2022-10-02T20:15:10.229Z,5.97
2022-10-02T20:17:39.167Z,6.30
2022-10-02T20:20:16.645Z,6.10
2022-10-02T20:22:51.577Z,6.13
2022-10-02T20:25:26.522Z,8.07
2022-10-02T20:28:02.447Z,6.00
2022-10-02T20:30:40.449Z,5.77
2022-10-02T20:33:19.176Z,6.13
2022-10-02T20:35:53.461Z,6.60
2022-10-02T20:38:32.639Z,6.13
2022-10-02T20:41:14.411Z,6.00
2022-10-02T20:43:48.591Z,7.07
2022-10-02T20:47:02.975Z,6.77
2022-10-02T20:50:20.842Z,7.03
2022-10-02T20:53:27.906Z,6.67
2022-10-02T20:56:07.389Z,22.43
2022-10-02T20:59:19.940Z,17.83
2022-10-02T21:02:03.480Z,14.10
2022-10-02T21:05:02.891Z,12.00
2022-10-02T21:07:58.779Z,7.03
2022-10-02T21:11:17.397Z,6.63
2022-10-02T21:14:21.722Z,7.40
2022-10-02T21:17:42.398Z,7.27
2022-10-02T21:20:51.265Z,7.53
2022-10-02T21:23:45.794Z,7.57
2022-10-02T21:27:16.045Z,8.23
2022-10-02T21:30:12.280Z,8.80
2022-10-02T21:33:06.671Z,8.27
2022-10-02T21:35:45.540Z,8.63
2022-10-02T21:38:59.250Z,9.40
2022-10-02T21:42:07.385Z,9.43
2022-10-02T21:45:40.149Z,9.77
2022-10-02T21:48:56.140Z,9.10
2022-10-02T21:52:15.908Z,8.47
2022-10-02T21:55:41.222Z,8.67
2022-10-02T21:59:19.861Z,8.40
2022-10-02T22:02:40.352Z,8.73
2022-10-02T22:06:08.937Z,9.20
2022-10-02T22:09:01.622Z,8.80
2022-10-02T22:11:43.174Z,8.87
2022-10-02T22:14:14.755Z,8.87
2022-10-02T22:16:57.592Z,8.77
2022-10-02T22:19:54.557Z,8.30
2022-10-02T22:22:40.205Z,9.27
2022-10-02T22:25:22.878Z,8.23
2022-10-02T22:28:25.278Z,9.30
2022-10-02T22:31:18.571Z,9.20
2022-10-02T22:34:03.094Z,8.87
2022-10-02T22:37:19.530Z,8.80
2022-10-02T22:39:54.905Z,8.33
2022-10-02T22:42:29.546Z,9.40
2022-10-02T22:45:04.574Z,9.47
2022-10-02T22:47:41.162Z,8.43
2022-10-02T22:50:23.371Z,9.43
2022-10-02T22:53:00.656Z,9.67
2022-10-02T22:55:33.961Z,9.80
2022-10-02T22:58:07.503Z,9.77
2022-10-02T23:00:51.169Z,9.23
2022-10-02T23:03:26.742Z,9.97
2022-10-02T23:06:02.544Z,10.13
2022-10-02T23:08:37.805Z,9.77
2022-10-02T23:11:16.181Z,9.77
2022-10-02T23:13:51.209Z,9.93
2022-10-02T23:16:27.636Z,10.20
2022-10-02T23:19:01.996Z,10.60
2022-10-02T23:21:45.925Z,9.57
2022-10-02T23:24:26.592Z,10.17
2022-10-02T23:27:07.415Z,9.97
2022-10-02T23:29:50.386Z,10.27
2022-10-02T23:32:26.916Z,10.10
2022-10-02T23:35:05.731Z,9.90
2022-10-02T23:37:45.848Z,10.17
2022-10-02T23:40:46.692Z,10.23
2022-10-02T23:43:23.623Z,9.93
2022-10-02T23:46:00.680Z,10.00
2022-10-02T23:48:30.095Z,10.40
2022-10-02T23:51:14.346Z,9.43
2022-10-02T23:54:07.345Z,10.67
2022-10-02T23:57:01.062Z,10.30
2022-10-02T23:59:55.231Z,10.40
